Time;durP1;ratioP1;P1;durP2;ratioP2;P2;SDS_P1;SDS_P2;PMS_P1;PMS_P2;Temp;Humidity;BMP_temperature;BMP_pressure;BME280_temperature;BME280_humidity;BME280_pressure;Samples;Min_cycle;Max_cycle;Signal;HPM_P1;HPM_P2
2022/12/20 00:01:52;;;;;;;49.40;18.05;;;;;;;-3.21;nan;102400.00;5063558;28;20017;-72
2022/12/20 00:04:17;;;;;;;48.95;17.50;;;;;;;-2.87;nan;102444.50;5051419;28;20546;-71
2022/12/20 00:06:42;;;;;;;47.95;17.98;;;;;;;-2.77;nan;102460.25;5068922;28;20028;-72
2022/12/20 00:09:10;;;;;;;45.80;17.58;;;;;;;-2.69;nan;102463.22;5047719;28;20085;-71
2022/12/20 00:11:38;;;;;;;45.60;17.00;;;;;;;-3.21;nan;102381.97;5066440;28;20024;-72
2022/12/20 00:14:04;;;;;;;44.40;17.73;;;;;;;-2.88;nan;102452.28;5032767;28;20028;-71
2022/12/20 00:16:30;;;;;;;42.95;16.63;;;;;;;-2.81;nan;102457.00;5062057;28;20029;-72
2022/12/20 00:18:58;;;;;;;42.10;17.00;;;;;;;-3.39;nan;102382.16;5045632;28;20028;-71
2022/12/20 00:21:24;;;;;;;41.47;16.67;;;;;;;-3.54;nan;102373.53;5065736;28;20125;-71
2022/12/20 00:23:51;;;;;;;42.90;16.98;;;;;;;-3.29;nan;102407.31;5048475;28;20028;-70
2022/12/20 00:26:20;;;;;;;46.63;17.83;;;;;;;-3.09;nan;102438.84;5051040;28;20044;-71
2022/12/20 00:28:45;;;;;;;44.08;17.67;;;;;;;-2.91;nan;102484.22;5061180;28;20066;-71
2022/12/20 00:31:13;;;;;;;45.92;17.42;;;;;;;-3.53;nan;102377.75;5050010;28;20122;-71
2022/12/20 00:33:40;;;;;;;44.65;16.73;;;;;;;-3.25;nan;102424.25;5046372;28;20060;-72
2022/12/20 00:36:07;;;;;;;46.10;17.48;;;;;;;-3.02;nan;102445.34;5066397;28;20024;-70
2022/12/20 00:38:33;;;;;;;49.92;18.92;;;;;;;-3.23;nan;102432.75;5062989;28;20033;-72
2022/12/20 00:41:26;;;;;;;47.05;16.75;;;;;;;-3.01;nan;102455.56;5062354;28;20107;-72
2022/12/20 00:43:52;;;;;;;43.30;16.90;;;;;;;-3.30;nan;102392.78;5051825;28;20127;-71
2022/12/20 00:46:19;;;;;;;47.92;17.92;;;;;;;-3.19;nan;102430.81;5044482;28;20112;-72
2022/12/20 00:48:45;;;;;;;44.78;18.08;;;;;;;-3.06;nan;102444.69;5066551;28;20657;-70
2022/12/20 00:51:17;;;;;;;43.22;17.15;;;;;;;-3.51;nan;102381.06;5027359;28;20430;-71
2022/12/20 00:53:43;;;;;;;45.83;17.95;;;;;;;-3.08;nan;102437.97;5066488;28;20063;-72
2022/12/20 00:56:09;;;;;;;43.90;18.17;;;;;;;-3.21;nan;102407.72;5054334;28;20020;-71
2022/12/20 00:58:37;;;;;;;48.17;18.63;;;;;;;-3.27;nan;102409.81;5070067;28;20523;-71
2022/12/20 01:01:04;;;;;;;50.78;18.42;;;;;;;-2.95;nan;102445.81;5052657;28;20028;-71
2022/12/20 01:03:29;;;;;;;55.20;20.08;;;;;;;-3.16;nan;102419.50;5050777;28;20173;-72
2022/12/20 01:05:58;;;;;;;53.97;20.38;;;;;;;-3.06;nan;102429.22;5051863;28;20062;-72
2022/12/20 01:08:25;;;;;;;62.55;24.27;;;;;;;-2.99;nan;102429.72;5045478;28;20078;-72
2022/12/20 01:11:14;;;;;;;65.13;24.50;;;;;;;-2.75;nan;102455.84;5052415;28;20560;-72
2022/12/20 01:13:42;;;;;;;58.83;21.80;;;;;;;-2.89;nan;102435.19;5051790;28;20047;-72
2022/12/20 01:16:17;;;;;;;54.60;21.10;;;;;;;-3.03;nan;102408.41;5048876;28;20054;-71
2022/12/20 01:18:42;;;;;;;47.42;18.80;;;;;;;-3.30;nan;102359.28;5050823;28;20034;-72
2022/12/20 01:21:11;;;;;;;49.65;19.98;;;;;;;-3.06;nan;102408.59;5046203;28;20123;-72
2022/12/20 01:23:37;;;;;;;51.42;20.08;;;;;;;-3.04;nan;102390.47;5069843;28;20024;-72
2022/12/20 01:26:04;;;;;;;50.53;20.38;;;;;;;-2.77;nan;102426.75;5069804;28;20023;-72
2022/12/20 01:28:31;;;;;;;62.38;20.80;;;;;;;-3.06;nan;102385.41;5065117;28;20038;-71
2022/12/20 01:30:56;;;;;;;55.92;20.38;;;;;;;-2.86;nan;102409.22;5068121;28;20115;-70
2022/12/20 01:33:22;;;;;;;51.63;21.23;;;;;;;-3.43;nan;102317.09;5050169;28;20107;-71
2022/12/20 01:35:55;;;;;;;52.92;19.52;;;;;;;-3.51;nan;102320.09;5068434;28;20028;-72
2022/12/20 01:38:20;;;;;;;50.20;20.73;;;;;;;-3.08;nan;102376.94;5069749;28;20074;-71
2022/12/20 01:40:45;;;;;;;56.30;21.25;;;;;;;-3.54;nan;102312.56;5054922;28;20024;-72
2022/12/20 01:43:14;;;;;;;57.88;22.58;;;;;;;-3.14;nan;102379.84;5068088;28;20024;-72
2022/12/20 01:45:39;;;;;;;53.28;21.55;;;;;;;-3.58;nan;102313.63;5066641;28;20066;-72
2022/12/20 01:48:06;;;;;;;56.95;22.13;;;;;;;-3.04;nan;102378.44;5065029;28;20056;-72
2022/12/20 01:50:33;;;;;;;50.85;21.35;;;;;;;-3.85;nan;102267.09;5065764;28;20036;-72
2022/12/20 01:53:01;;;;;;;55.22;21.20;;;;;;;-3.03;nan;102386.97;5050974;28;20024;-72
2022/12/20 01:55:27;;;;;;;53.63;20.65;;;;;;;-3.19;nan;102371.53;5070336;28;20021;-72
2022/12/20 01:58:02;;;;;;;64.95;23.38;;;;;;;-3.20;nan;102369.91;5063120;28;20052;-71
2022/12/20 02:00:28;;;;;;;65.63;23.17;;;;;;;-3.45;nan;102329.22;5049777;28;20020;-72
2022/12/20 02:02:54;;;;;;;67.50;25.00;;;;;;;-3.50;nan;102338.94;5066921;28;20032;-71
2022/12/20 02:05:22;;;;;;;63.60;23.67;;;;;;;-3.31;nan;102357.59;5044150;28;20033;-72
2022/12/20 02:07:51;;;;;;;54.50;21.23;;;;;;;-3.38;nan;102345.16;5061599;28;20024;-71
2022/12/20 02:10:19;;;;;;;54.13;20.85;;;;;;;-3.09;nan;102395.91;5068224;28;20032;-72
2022/12/20 02:12:46;;;;;;;53.72;21.33;;;;;;;-3.67;nan;102303.84;5052455;28;20037;-71
2022/12/20 02:15:41;;;;;;;57.58;20.88;;;;;;;-3.09;nan;102402.78;5064063;28;20035;-72
2022/12/20 02:18:26;;;;;;;57.05;20.42;;;;;;;-3.27;nan;102392.59;5065364;28;20060;-71
2022/12/20 02:21:00;;;;;;;52.65;20.70;;;;;;;-3.17;nan;102397.25;5068055;28;20494;-71
2022/12/20 02:24:03;;;;;;;68.53;25.65;;;;;;;-3.31;nan;102391.09;5053478;28;20059;-72
2022/12/20 02:26:44;;;;;;;76.45;27.65;;;;;;;-3.34;nan;102395.59;5053145;28;20013;-71
2022/12/20 02:29:18;;;;;;;70.68;26.38;;;;;;;-3.40;nan;102395.94;5063260;28;20063;-72
2022/12/20 02:32:06;;;;;;;73.55;26.25;;;;;;;-3.49;nan;102377.50;5065833;28;20033;-72
2022/12/20 02:34:34;;;;;;;64.25;24.02;;;;;;;-3.47;nan;102382.53;5066037;28;20521;-71
2022/12/20 02:37:00;;;;;;;65.80;25.45;;;;;;;-3.57;nan;102371.91;5047817;28;20029;-71
2022/12/20 02:39:27;;;;;;;70.47;25.48;;;;;;;-3.54;nan;102376.94;5051391;28;20020;-72
2022/12/20 02:42:00;;;;;;;67.40;24.30;;;;;;;-3.62;nan;102361.03;5050361;28;20471;-72
2022/12/20 02:47:20;;;;;;;69.35;25.95;;;;;;;-3.40;nan;102388.19;5058550;28;20055;-70
2022/12/20 02:49:48;;;;;;;99.82;31.92;;;;;;;-3.42;nan;102378.00;5064934;28;20025;-69
2022/12/20 02:52:14;;;;;;;86.13;29.85;;;;;;;-3.49;nan;102368.94;5059742;28;20107;-69
2022/12/20 02:54:39;;;;;;;78.53;27.15;;;;;;;-3.48;nan;102360.28;5068884;28;20025;-70
2022/12/20 02:57:15;;;;;;;68.03;25.48;;;;;;;-3.35;nan;102370.75;5049103;28;20041;-70
2022/12/20 02:59:48;;;;;;;69.53;25.20;;;;;;;-3.39;nan;102353.81;5064409;28;20520;-69
2022/12/20 03:02:14;;;;;;;72.95;25.25;;;;;;;-3.35;nan;102358.72;5064164;28;20363;-69
2022/12/20 03:04:41;;;;;;;54.20;19.48;;;;;;;-3.31;nan;102357.59;5044900;28;20025;-69
2022/12/20 03:07:12;;;;;;;54.38;19.77;;;;;;;-3.30;nan;102356.72;5063364;28;20387;-70
2022/12/20 03:09:40;;;;;;;45.28;17.90;;;;;;;-3.32;nan;102353.38;5064403;28;20027;-69
2022/12/20 03:12:07;;;;;;;43.88;18.33;;;;;;;-3.42;nan;102335.03;5066998;28;20016;-70
2022/12/20 03:14:32;;;;;;;56.08;18.90;;;;;;;-3.33;nan;102336.25;5067184;28;20058;-69
2022/12/20 03:16:57;;;;;;;52.25;18.92;;;;;;;-3.35;nan;102332.09;5064938;28;20036;-69
2022/12/20 03:19:23;;;;;;;52.13;19.33;;;;;;;-3.36;nan;102323.56;5065295;28;20024;-69
2022/12/20 03:21:48;;;;;;;51.55;18.83;;;;;;;-3.38;nan;102325.38;5064942;28;20467;-70
2022/12/20 03:24:14;;;;;;;54.15;18.65;;;;;;;-3.69;nan;102291.06;5068304;28;20093;-68
2022/12/20 03:26:40;;;;;;;51.17;17.65;;;;;;;-3.40;nan;102331.53;5065165;28;20367;-71
2022/12/20 03:29:05;;;;;;;44.95;16.73;;;;;;;-3.45;nan;102326.63;5063754;28;20025;-71
2022/12/20 03:31:31;;;;;;;44.92;16.48;;;;;;;-3.48;nan;102321.66;5064284;28;20079;-70
2022/12/20 03:33:56;;;;;;;43.92;15.82;;;;;;;-3.52;nan;102318.44;5047997;28;20651;-70
2022/12/20 03:36:22;;;;;;;42.25;15.60;;;;;;;-3.43;nan;102322.22;5062686;28;20070;-70
2022/12/20 03:38:52;;;;;;;42.83;15.95;;;;;;;-3.46;nan;102312.13;5066789;28;20371;-71
2022/12/20 03:41:20;;;;;;;38.65;15.80;;;;;;;-3.36;nan;102320.16;5067080;28;20424;-70
2022/12/20 03:43:45;;;;;;;46.88;17.60;;;;;;;-3.37;nan;102310.78;5060868;28;20021;-70
2022/12/20 03:46:10;;;;;;;42.83;16.67;;;;;;;-3.42;nan;102298.97;5061891;28;20483;-70
2022/12/20 03:48:36;;;;;;;41.40;15.75;;;;;;;-3.48;nan;102290.75;5063666;28;20024;-70
2022/12/20 03:51:01;;;;;;;44.70;16.60;;;;;;;-3.35;nan;102309.78;5047469;28;20153;-70
2022/12/20 03:53:26;;;;;;;45.97;16.67;;;;;;;-3.63;nan;102249.50;5062712;28;20511;-70
2022/12/20 03:55:52;;;;;;;43.83;16.80;;;;;;;-3.32;nan;102294.13;5040731;28;20021;-70
2022/12/20 03:58:17;;;;;;;43.70;16.27;;;;;;;-3.36;nan;102282.34;5049861;28;20044;-70
2022/12/20 04:00:43;;;;;;;41.30;15.93;;;;;;;-3.38;nan;102288.50;5065663;28;20025;-70
2022/12/20 04:03:08;;;;;;;44.85;17.30;;;;;;;-3.34;nan;102284.84;5063832;28;20466;-70
2022/12/20 04:05:33;;;;;;;41.47;16.73;;;;;;;-3.29;nan;102290.56;5062365;28;20029;-70
2022/12/20 04:07:59;;;;;;;44.50;15.90;;;;;;;-3.39;nan;102274.78;5063283;28;20103;-70
2022/12/20 04:10:24;;;;;;;46.45;17.73;;;;;;;-3.29;nan;102282.81;5050363;28;20036;-70
2022/12/20 04:12:51;;;;;;;49.30;17.20;;;;;;;-3.29;nan;102285.41;5067515;28;20294;-70
2022/12/20 04:15:16;;;;;;;41.08;17.20;;;;;;;-3.29;nan;102277.66;5059890;28;20395;-70
2022/12/20 04:17:41;;;;;;;47.38;17.60;;;;;;;-3.28;nan;102279.31;5045481;28;20028;-70
2022/12/20 04:20:18;;;;;;;45.25;16.98;;;;;;;-3.31;nan;102272.59;5066800;28;20033;-70
2022/12/20 04:22:47;;;;;;;49.60;18.35;;;;;;;-3.36;nan;102266.88;5062388;28;20032;-70
2022/12/20 04:25:14;;;;;;;44.45;16.35;;;;;;;-3.33;nan;102271.84;5059623;28;20031;-70
2022/12/20 04:27:40;;;;;;;48.30;18.17;;;;;;;-3.35;nan;102272.84;5063286;28;20082;-71
2022/12/20 04:30:06;;;;;;;46.05;16.77;;;;;;;-3.30;nan;102274.28;5038789;28;20033;-69
2022/12/20 04:32:31;;;;;;;45.88;17.95;;;;;;;-3.43;nan;102250.13;5049227;28;20161;-69
2022/12/20 04:34:56;;;;;;;49.47;19.02;;;;;;;-3.24;nan;102281.63;5062605;28;20050;-70
2022/12/20 04:37:22;;;;;;;44.45;17.63;;;;;;;-3.15;nan;102297.50;5067887;28;20024;-70
2022/12/20 04:39:47;;;;;;;46.58;18.10;;;;;;;-3.19;nan;102290.84;5044094;28;20033;-70
2022/12/20 04:42:12;;;;;;;52.38;18.60;;;;;;;-3.21;nan;102286.63;5063007;28;20394;-70
2022/12/20 04:44:38;;;;;;;57.55;19.15;;;;;;;-3.09;nan;102292.81;5039595;28;20665;-70
2022/12/20 04:47:03;;;;;;;55.13;19.30;;;;;;;-3.07;nan;102292.72;5055190;28;20028;-73
2022/12/20 04:49:28;;;;;;;60.30;19.42;;;;;;;-3.09;nan;102284.25;5037179;28;20025;-71
2022/12/20 04:51:54;;;;;;;55.58;19.05;;;;;;;-3.16;nan;102272.63;5061896;28;20017;-73
2022/12/20 04:54:42;;;;;;;55.75;20.08;;;;;;;-3.14;nan;102274.19;5064950;28;20394;-67
2022/12/20 04:57:09;;;;;;;53.78;19.85;;;;;;;-3.18;nan;102259.00;5067056;28;20026;-65
2022/12/20 04:59:37;;;;;;;54.33;18.20;;;;;;;-3.43;nan;102220.03;5063008;28;20052;-67
2022/12/20 05:02:02;;;;;;;41.35;17.27;;;;;;;-2.97;nan;102272.38;5063950;28;20025;-73
2022/12/20 05:04:28;;;;;;;47.33;18.45;;;;;;;-3.02;nan;102265.78;5047859;28;20032;-70
2022/12/20 05:06:53;;;;;;;56.10;18.70;;;;;;;-3.24;nan;102235.25;5041322;28;20028;-72
2022/12/20 05:09:19;;;;;;;52.20;19.15;;;;;;;-3.21;nan;102240.25;5040514;28;20037;-71
2022/12/20 05:11:44;;;;;;;54.42;18.52;;;;;;;-3.13;nan;102247.53;5037609;28;20112;-71
2022/12/20 05:14:09;;;;;;;53.88;20.20;;;;;;;-3.14;nan;102247.59;5054933;28;20028;-73
2022/12/20 05:16:36;;;;;;;55.05;19.70;;;;;;;-3.12;nan;102249.16;5059051;28;20209;-73
2022/12/20 05:19:03;;;;;;;47.28;18.02;;;;;;;-3.02;nan;102270.06;5043796;28;20119;-72
2022/12/20 05:26:57;;;;;;;45.47;17.33;;;;;;;-3.15;nan;102254.50;5053908;28;20059;-72
2022/12/20 05:29:22;;;;;;;46.45;16.77;;;;;;;-3.06;nan;102264.28;5064008;28;20655;-73
2022/12/20 05:31:48;;;;;;;48.20;18.65;;;;;;;-3.21;nan;102235.09;5062815;28;20032;-72
2022/12/20 05:34:13;;;;;;;44.72;17.58;;;;;;;-3.18;nan;102249.56;5065755;28;20104;-72
2022/12/20 05:36:39;;;;;;;47.60;17.23;;;;;;;-3.12;nan;102249.16;5062972;28;20021;-71
2022/12/20 05:39:05;;;;;;;46.53;18.15;;;;;;;-3.26;nan;102231.13;5067814;28;20127;-71
2022/12/20 05:41:30;;;;;;;45.42;17.85;;;;;;;-3.13;nan;102247.53;5067779;28;20024;-72
2022/12/20 05:43:56;;;;;;;47.58;18.40;;;;;;;-3.14;nan;102238.13;5067684;28;20031;-72
2022/12/20 05:46:22;;;;;;;45.53;17.95;;;;;;;-3.27;nan;102216.59;5069557;28;20101;-71
2022/12/20 05:48:49;;;;;;;51.65;18.75;;;;;;;-3.14;nan;102245.03;5065117;28;20032;-73
2022/12/20 05:51:14;;;;;;;51.85;18.67;;;;;;;-3.20;nan;102230.78;5045245;28;20036;-72
2022/12/20 05:53:40;;;;;;;54.08;18.63;;;;;;;-3.07;nan;102246.31;5068598;28;20120;-74
2022/12/20 05:56:05;;;;;;;54.22;18.95;;;;;;;-3.18;nan;102222.94;5032572;28;20115;-74
2022/12/20 05:58:31;;;;;;;48.97;20.05;;;;;;;-3.16;nan;102221.09;5063024;28;20063;-72
2022/12/20 06:01:00;;;;;;;60.70;22.58;;;;;;;-3.02;nan;102244.31;5064201;28;20023;-73
2022/12/20 06:03:26;;;;;;;54.60;20.35;;;;;;;-3.15;nan;102230.50;5062819;28;20216;-72
2022/12/20 06:05:51;;;;;;;53.30;19.77;;;;;;;-3.17;nan;102227.19;5063591;28;20032;-72
2022/12/20 06:08:16;;;;;;;55.45;20.05;;;;;;;-3.13;nan;102226.91;5055547;28;20029;-72
2022/12/20 06:10:42;;;;;;;55.13;20.50;;;;;;;-3.09;nan;102230.97;5059303;28;20029;-73
2022/12/20 06:13:08;;;;;;;54.13;19.90;;;;;;;-3.19;nan;102214.38;5041572;28;20047;-74
2022/12/20 06:15:34;;;;;;;55.15;21.55;;;;;;;-3.16;nan;102218.53;5060674;28;20486;-73
2022/12/20 06:17:59;;;;;;;55.28;21.17;;;;;;;-3.06;nan;102243.66;5063417;28;20028;-73
2022/12/20 06:20:25;;;;;;;53.75;19.58;;;;;;;-3.24;nan;102199.19;5066891;28;20020;-73
2022/12/20 06:22:51;;;;;;;51.50;20.40;;;;;;;-3.26;nan;102203.59;5070628;28;20017;-74
2022/12/20 06:25:17;;;;;;;55.90;21.00;;;;;;;-3.03;nan;102232.34;5057103;28;20056;-74
2022/12/20 06:27:42;;;;;;;55.60;21.52;;;;;;;-3.33;nan;102198.91;5061262;28;20060;-73
2022/12/20 06:30:08;;;;;;;51.47;20.58;;;;;;;-3.07;nan;102236.84;5060264;28;20028;-72
2022/12/20 06:32:34;;;;;;;55.13;21.10;;;;;;;-3.06;nan;102237.69;5054349;28;20025;-72
2022/12/20 06:34:59;;;;;;;52.35;19.88;;;;;;;-3.17;nan;102232.34;5060911;28;20043;-73
2022/12/20 06:37:25;;;;;;;54.28;20.40;;;;;;;-3.21;nan;102221.38;5048831;28;20025;-72
2022/12/20 06:39:50;;;;;;;54.17;20.05;;;;;;;-3.14;nan;102225.25;5065839;28;20533;-72
2022/12/20 06:42:16;;;;;;;53.40;20.27;;;;;;;-3.11;nan;102229.38;5062515;28;20463;-72
2022/12/20 06:44:41;;;;;;;55.13;20.13;;;;;;;-3.16;nan;102221.94;5063290;28;20024;-72
2022/12/20 06:47:06;;;;;;;54.28;20.60;;;;;;;-3.12;nan;102222.59;5049686;28;20094;-69
2022/12/20 06:49:34;;;;;;;56.28;20.73;;;;;;;-3.24;nan;102209.50;5063145;28;20116;-70
2022/12/20 06:52:00;;;;;;;50.83;19.15;;;;;;;-3.13;nan;102221.75;5059987;28;20025;-70
2022/12/20 06:54:25;;;;;;;51.92;20.25;;;;;;;-3.41;nan;102183.91;5049772;28;20077;-71
2022/12/20 06:56:50;;;;;;;49.25;19.90;;;;;;;-3.15;nan;102223.59;5043342;28;20027;-71
2022/12/20 06:59:19;;;;;;;58.65;21.65;;;;;;;-3.07;nan;102223.97;5045136;28;20511;-71
2022/12/20 07:01:47;;;;;;;46.37;16.43;;;;;;;-3.00;nan;102234.75;5044863;28;20025;-71
2022/12/20 07:04:23;;;;;;;58.67;21.80;;;;;;;-2.98;nan;102240.63;5055924;28;20060;-70
2022/12/20 07:06:48;;;;;;;63.80;22.77;;;;;;;-2.95;nan;102240.44;5044279;28;20049;-71
2022/12/20 07:09:14;;;;;;;56.25;21.73;;;;;;;-3.03;nan;102224.63;5055494;28;20063;-71
2022/12/20 07:11:39;;;;;;;59.88;21.27;;;;;;;-2.94;nan;102228.41;5066045;28;20020;-72
2022/12/20 07:14:05;;;;;;;60.88;22.13;;;;;;;-2.99;nan;102226.09;5064688;28;20040;-70
2022/12/20 07:16:31;;;;;;;55.88;21.77;;;;;;;-2.93;nan;102230.88;5048679;28;20035;-70
2022/12/20 07:18:56;;;;;;;51.92;21.38;;;;;;;-2.94;nan;102218.09;5064510;28;20017;-68
2022/12/20 07:21:21;;;;;;;56.88;21.17;;;;;;;-2.93;nan;102210.25;5063565;28;20023;-70
2022/12/20 07:23:47;;;;;;;53.58;20.33;;;;;;;-2.86;nan;102218.44;5069423;28;20041;-69
2022/12/20 07:26:13;;;;;;;57.97;20.98;;;;;;;-2.71;nan;102234.75;5059235;28;20032;-71
2022/12/20 07:28:40;;;;;;;53.15;21.80;;;;;;;-2.65;nan;102244.69;5063978;28;20490;-72
2022/12/20 07:31:05;;;;;;;55.03;20.65;;;;;;;-2.66;nan;102237.88;5055780;28;20115;-72
2022/12/20 07:33:32;;;;;;;53.90;20.85;;;;;;;-2.55;nan;102247.53;5046398;28;20083;-76
2022/12/20 07:36:06;;;;;;;56.38;21.17;;;;;;;-2.50;nan;102245.50;5040808;28;20036;-72
2022/12/20 07:38:32;;;;;;;53.78;21.25;;;;;;;-2.47;nan;102246.13;5054996;28;20037;-72
2022/12/20 07:40:57;;;;;;;56.60;21.38;;;;;;;-2.53;nan;102225.91;5062501;28;20490;-70
2022/12/20 07:43:23;;;;;;;52.10;20.58;;;;;;;-2.31;nan;102258.09;5069391;28;20040;-74
2022/12/20 07:45:53;;;;;;;49.30;19.45;;;;;;;-2.37;nan;102233.50;5054251;28;20031;-75
2022/12/20 07:48:19;;;;;;;55.03;21.02;;;;;;;-2.35;nan;102234.22;5058037;28;20016;-74
2022/12/20 07:50:44;;;;;;;51.28;20.70;;;;;;;-2.22;nan;102237.72;5063243;28;20048;-75
2022/12/20 07:53:10;;;;;;;53.38;21.77;;;;;;;-2.25;nan;102230.19;5081932;28;20020;-75
2022/12/20 07:55:38;;;;;;;55.42;21.17;;;;;;;-2.21;nan;102221.28;5053305;28;20028;-74
2022/12/20 07:58:07;;;;;;;53.40;20.50;;;;;;;-2.02;nan;102238.22;5035363;28;20082;-70
2022/12/20 08:00:32;;;;;;;52.45;20.73;;;;;;;-2.34;nan;102180.91;5043285;28;20029;-70
2022/12/20 08:03:30;;;;;;;54.63;20.88;;;;;;;-1.93;nan;102232.47;5063196;28;20077;-73
2022/12/20 08:05:59;;;;;;;50.67;19.70;;;;;;;-1.89;nan;102222.75;5048438;28;20082;-74
2022/12/20 08:08:25;;;;;;;54.40;21.38;;;;;;;-1.73;nan;102238.94;5062893;28;20020;-75
2022/12/20 08:10:50;;;;;;;58.03;21.42;;;;;;;-1.67;nan;102235.13;5062394;28;20032;-74
2022/12/20 08:13:17;;;;;;;54.35;20.13;;;;;;;-1.66;nan;102222.09;5063449;28;20100;-74
2022/12/20 08:15:42;;;;;;;51.13;20.02;;;;;;;-1.52;nan;102227.19;5042839;28;20060;-70
2022/12/20 08:18:08;;;;;;;57.15;22.08;;;;;;;-1.40;nan;102243.66;5068306;28;20056;-71
2022/12/20 08:20:33;;;;;;;53.70;20.63;;;;;;;;;;5060789;28;20071;-71
2022/12/20 08:22:58;;;;;;;48.53;19.40;;;;;;;;;;5051741;28;20024;-74
2022/12/20 08:25:31;;;;;;;53.53;19.23;;;;;;;;;;5065576;28;20471;-71
2022/12/20 08:27:56;;;;;;;48.92;20.05;;;;;;;;;;5067444;28;20281;-71
2022/12/20 08:30:22;;;;;;;48.65;18.52;;;;;;;;;;5060202;28;20052;-73
2022/12/20 08:32:47;;;;;;;47.40;18.37;;;;;;;;;;5061299;28;20028;-73
2022/12/20 08:35:12;;;;;;;46.83;18.30;;;;;;;;;;5047644;28;20277;-73
2022/12/20 08:37:37;;;;;;;46.75;19.05;;;;;;;;;;5062208;28;20162;-72
2022/12/20 08:40:03;;;;;;;47.80;18.83;;;;;;;;;;5061085;28;20028;-72
2022/12/20 08:42:29;;;;;;;49.60;18.60;;;;;;;;;;5066606;28;20025;-71
2022/12/20 08:44:54;;;;;;;55.77;18.33;;;;;;;;;;5041580;28;20543;-72
2022/12/20 08:47:19;;;;;;;47.00;18.70;;;;;;;;;;5045577;28;20277;-73
2022/12/20 08:49:44;;;;;;;44.65;18.63;;;;;;;;;;5049572;28;20025;-72
2022/12/20 08:52:10;;;;;;;46.00;17.85;;;;;;;;;;5050059;28;20720;-72
2022/12/20 08:54:35;;;;;;;44.00;18.07;;;;;;;;;;5045606;28;20083;-72
2022/12/20 08:57:04;;;;;;;46.17;18.87;;;;;;;;;;5044463;28;20044;-71
2022/12/20 08:59:29;;;;;;;54.63;19.43;;;;;;;;;;5064184;28;20300;-72
2022/12/20 09:01:54;;;;;;;49.60;20.00;;;;;;;;;;5046179;28;20372;-71
2022/12/20 09:04:20;;;;;;;46.78;18.67;;;;;;;;;;5041754;28;20339;-70
2022/12/20 09:06:46;;;;;;;42.78;18.27;;;;;;;;;;5042768;28;20402;-71
2022/12/20 09:09:11;;;;;;;43.47;17.73;;;;;;;;;;5065210;28;20394;-73
2022/12/20 09:11:36;;;;;;;47.53;19.43;;;;;;;;;;5058084;28;20056;-72
2022/12/20 09:14:01;;;;;;;46.67;19.03;;;;;;;;;;5067634;28;20281;-70
2022/12/20 09:16:28;;;;;;;49.22;18.38;;;;;;;;;;5049021;28;20321;-73
2022/12/20 09:18:55;;;;;;;54.47;21.58;;;;;;;;;;5065200;28;20071;-70
2022/12/20 09:21:20;;;;;;;51.63;20.63;;;;;;;;;;5066660;28;20078;-69
2022/12/20 09:23:46;;;;;;;49.83;20.40;;;;;;;;;;5046714;28;20029;-71
2022/12/20 09:26:12;;;;;;;46.97;19.25;;;;;;;;;;5065276;28;20035;-72
2022/12/20 09:28:38;;;;;;;50.00;19.92;;;;;;;;;;5065825;28;20545;-73
2022/12/20 09:31:04;;;;;;;52.13;20.40;;;;;;;;;;5052246;28;20124;-71
2022/12/20 09:33:30;;;;;;;48.80;19.63;;;;;;;;;;5063565;28;20044;-71
2022/12/20 09:35:56;;;;;;;47.55;19.27;;;;;;;;;;5049713;28;20659;-72
2022/12/20 09:38:22;;;;;;;51.70;20.17;;;;;;;;;;5048281;28;20032;-72
2022/12/20 09:40:49;;;;;;;48.88;19.80;;;;;;;;;;5063264;28;20028;-72
2022/12/20 09:43:15;;;;;;;50.22;19.55;;;;;;;;;;5054490;28;20090;-72
2022/12/20 09:45:40;;;;;;;45.25;19.35;;;;;;;;;;5063702;28;20083;-73
2022/12/20 09:48:12;;;;;;;49.63;20.80;;;;;;;;;;5065424;28;20021;-72
2022/12/20 09:50:49;;;;;;;47.42;19.80;;;;;;;;;;5066016;28;20043;-72
2022/12/20 09:53:18;;;;;;;47.05;18.35;;;;;;;;;;5044754;28;20028;-67
2022/12/20 09:55:55;;;;;;;45.13;16.98;;;;;;;;;;5049875;28;20436;-71
2022/12/20 09:58:35;;;;;;;37.05;15.45;;;;;;;;;;5049940;28;20040;-69
2022/12/20 10:01:12;;;;;;;39.85;15.82;;;;;;;;;;5062237;28;20024;-71
2022/12/20 10:03:37;;;;;;;37.22;15.63;;;;;;;;;;5068883;28;20083;-70
2022/12/20 10:06:13;;;;;;;38.97;15.97;;;;;;;;;;5063846;28;20492;-71
2022/12/20 10:08:49;;;;;;;41.28;16.92;;;;;;;;;;5066010;28;20280;-69
2022/12/20 10:11:14;;;;;;;40.08;16.10;;;;;;;;;;5064891;28;20044;-69
2022/12/20 10:13:46;;;;;;;40.73;16.63;;;;;;;;;;5068471;28;20024;-70
2022/12/20 10:16:11;;;;;;;35.53;15.85;;;;;;;;;;5051474;28;20682;-70
2022/12/20 10:18:44;;;;;;;39.60;17.33;;;;;;;;;;5066526;28;20028;-71
2022/12/20 10:21:25;;;;;;;37.95;17.10;;;;;;;;;;5066422;28;20023;-71
2022/12/20 10:23:57;;;;;;;36.17;15.68;;;;;;;;;;5064044;28;20406;-69
2022/12/20 10:26:22;;;;;;;40.35;16.88;;;;;;;;;;5065837;28;20534;-70
2022/12/20 10:28:47;;;;;;;37.80;15.63;;;;;;;;;;5065113;28;20116;-69
2022/12/20 10:31:13;;;;;;;35.40;15.60;;;;;;;;;;5062407;28;20037;-70
2022/12/20 10:33:39;;;;;;;38.10;16.52;;;;;;;;;;5048337;28;20305;-70
2022/12/20 10:36:17;;;;;;;42.65;18.33;;;;;;;;;;5063062;28;20029;-71
2022/12/20 10:38:43;;;;;;;44.83;17.67;;;;;;;;;;5048306;28;20028;-71
2022/12/20 10:41:13;;;;;;;36.38;16.58;;;;;;;;;;5068254;28;20483;-71
2022/12/20 10:43:43;;;;;;;44.40;18.42;;;;;;;;;;5061425;28;20044;-70
2022/12/20 10:46:09;;;;;;;39.50;17.65;;;;;;;;;;5048787;28;20089;-71
2022/12/20 10:48:36;;;;;;;39.60;16.67;;;;;;;;;;5061793;28;20032;-69
2022/12/20 10:51:07;;;;;;;40.05;17.33;;;;;;;;;;5042417;28;20040;-71
2022/12/20 10:53:32;;;;;;;34.83;15.57;;;;;;;;;;5063574;28;20040;-72
2022/12/20 10:56:27;;;;;;;34.72;16.27;;;;;;;;;;5063947;28;20032;-69
2022/12/20 10:58:52;;;;;;;35.75;16.73;;;;;;;;;;5047332;28;20048;-69
2022/12/20 11:01:18;;;;;;;34.85;15.88;;;;;;;;;;5067478;28;20025;-68
2022/12/20 11:03:53;;;;;;;36.42;16.10;;;;;;;;;;5050035;28;20028;-68
2022/12/20 11:06:19;;;;;;;35.40;16.30;;;;;;;;;;5051937;28;20033;-69
2022/12/20 11:08:44;;;;;;;39.40;17.10;;;;;;;;;;5067600;28;20036;-70
2022/12/20 11:11:11;;;;;;;42.30;17.63;;;;;;;;;;5066010;28;20039;-72
2022/12/20 11:13:36;;;;;;;37.85;17.15;;;;;;;;;;5064426;28;20278;-71
2022/12/20 11:16:01;;;;;;;39.17;17.95;;;;;;;;;;5047948;28;20081;-70
2022/12/20 11:18:29;;;;;;;40.77;18.30;;;;;;;;;;5043515;28;20024;-70
2022/12/20 11:21:03;;;;;;;47.70;19.27;;;;;;;;;;5065658;28;20269;-71
2022/12/20 11:23:29;;;;;;;45.05;20.42;;;;;;;;;;5050011;28;20025;-71
2022/12/20 11:26:07;;;;;;;46.60;20.87;;;;;;;;;;5067611;28;20028;-70
2022/12/20 11:28:41;;;;;;;47.38;20.35;;;;;;;;;;5060368;28;20025;-71
2022/12/20 11:31:26;;;;;;;42.78;18.85;;;;;;;;;;5047601;28;20430;-71
2022/12/20 11:34:14;;;;;;;38.45;18.08;;;;;;;;;;5059618;28;20028;-69
2022/12/20 11:36:59;;;;;;;37.30;17.53;;;;;;;;;;5048877;28;20402;-69
2022/12/20 11:39:24;;;;;;;37.95;18.27;;;;;;;;;;5047867;28;20112;-69
2022/12/20 11:42:13;;;;;;;38.13;18.52;;;;;;;;;;5065967;28;20116;-70
2022/12/20 11:44:57;;;;;;;38.53;17.67;;;;;;;;;;4966921;28;20049;-70
2022/12/20 11:47:39;;;;;;;42.42;18.75;;;;;;;;;;4951328;28;20039;-70
2022/12/20 11:50:27;;;;;;;37.30;15.95;;;;;;;;;;4944266;28;20046;-70
2022/12/20 11:52:56;;;;;;;34.53;15.13;;;;;;;;;;4872153;29;20135;-68
2022/12/20 11:55:31;;;;;;;33.83;14.98;;;;;;;;;;4872353;29;20048;-69
2022/12/20 11:58:05;;;;;;;33.20;14.65;;;;;;;;;;4871267;29;20104;-69
2022/12/20 12:00:34;;;;;;;31.13;14.18;;;;;;;;;;4875094;29;20156;-69
2022/12/20 12:03:18;;;;;;;30.17;14.13;;;;;;;;;;4876348;29;20029;-67
2022/12/20 12:05:45;;;;;;;30.48;12.80;;;;;;;;;;4874303;29;20092;-68
2022/12/20 12:08:16;;;;;;;29.55;13.13;;;;;;;;;;4872307;29;20044;-69
2022/12/20 12:10:47;;;;;;;31.75;14.23;;;;;;;;;;4867007;29;20040;-69
2022/12/20 12:13:27;;;;;;;28.27;13.68;;;;;;;;;;4871943;29;20028;-68
2022/12/20 12:15:58;;;;;;;28.02;13.77;;;;;;;;;;4873888;29;20044;-68
2022/12/20 12:18:26;;;;;;;30.73;13.25;;;;;;;;;;4869613;29;20123;-68
2022/12/20 12:21:04;;;;;;;31.10;14.35;;;;;;;;;;4885748;28;20054;-69
2022/12/20 12:23:35;;;;;;;30.40;14.07;;;;;;;;;;4947596;28;20035;-68
2022/12/20 12:26:04;;;;;;;29.48;12.95;;;;;;;;;;4943991;29;20172;-69
2022/12/20 12:28:29;;;;;;;30.13;13.07;;;;;;;;;;4940650;28;20039;-69
2022/12/20 12:30:58;;;;;;;24.07;11.57;;;;;;;;;;5031487;28;20041;-69